createdAt,value
2023-03-06T00:00:26.203Z,4.55
2023-03-06T00:02:53.491Z,4.52
2023-03-06T00:05:20.044Z,4.50
2023-03-06T00:07:46.583Z,4.46
2023-03-06T00:10:22.039Z,4.43
2023-03-06T00:12:50.806Z,4.41
2023-03-06T00:15:17.249Z,4.40
2023-03-06T00:17:43.749Z,4.42
2023-03-06T00:20:11.930Z,4.42
2023-03-06T00:22:38.776Z,4.40
2023-03-06T00:25:06.647Z,4.42
2023-03-06T00:27:33.241Z,4.41
2023-03-06T00:30:01.039Z,4.41
2023-03-06T00:32:28.516Z,4.41
2023-03-06T00:34:56.024Z,4.42
2023-03-06T00:37:24.543Z,4.42
2023-03-06T00:39:51.771Z,4.42
2023-03-06T00:42:19.176Z,4.43
2023-03-06T00:44:45.907Z,4.42
2023-03-06T00:47:13.013Z,4.40
2023-03-06T00:49:39.539Z,4.38
2023-03-06T00:52:05.919Z,4.38
2023-03-06T00:54:32.306Z,4.37
2023-03-06T00:56:58.832Z,4.36
2023-03-06T00:59:25.462Z,4.36
2023-03-06T01:01:52.316Z,4.36
2023-03-06T01:04:19.284Z,4.33
2023-03-06T01:06:47.837Z,4.31
2023-03-06T01:09:14.261Z,4.32
2023-03-06T01:11:40.630Z,4.30
2023-03-06T01:14:07.270Z,4.30
2023-03-06T01:16:33.771Z,4.30
2023-03-06T01:19:00.236Z,4.30
2023-03-06T01:21:26.699Z,4.32
2023-03-06T01:23:53.101Z,4.30
2023-03-06T01:26:19.611Z,4.28
2023-03-06T01:28:46.006Z,4.28
2023-03-06T01:31:12.579Z,4.24
2023-03-06T01:33:39.024Z,4.21
2023-03-06T01:36:08.180Z,4.22
2023-03-06T01:38:36.068Z,4.20
2023-03-06T01:41:04.467Z,4.19
2023-03-06T01:43:34.664Z,4.19
2023-03-06T01:46:22.854Z,4.19
2023-03-06T01:48:53.991Z,4.18
2023-03-06T01:51:21.004Z,4.17
2023-03-06T01:53:48.755Z,4.16
2023-03-06T01:56:15.965Z,4.13
2023-03-06T01:58:44.203Z,4.13
2023-03-06T02:01:14.781Z,4.14
2023-03-06T02:03:43.688Z,4.16
2023-03-06T02:06:10.162Z,4.16
2023-03-06T02:08:37.008Z,4.18
2023-03-06T02:11:18.312Z,4.20
2023-03-06T02:13:48.466Z,4.18
2023-03-06T02:16:17.261Z,4.18
2023-03-06T02:18:46.079Z,4.17
2023-03-06T02:21:20.269Z,4.17
2023-03-06T02:24:16.518Z,4.16
2023-03-06T02:26:45.151Z,4.14
2023-03-06T02:29:11.772Z,4.14
2023-03-06T02:31:38.252Z,4.12
2023-03-06T02:34:16.633Z,4.14
2023-03-06T02:36:46.200Z,4.16
2023-03-06T02:39:13.687Z,4.17
2023-03-06T02:41:40.457Z,4.16
2023-03-06T02:44:08.080Z,4.15
2023-03-06T02:46:35.319Z,4.13
2023-03-06T02:49:01.950Z,4.12
2023-03-06T02:51:28.567Z,4.11
2023-03-06T02:53:55.050Z,4.14
2023-03-06T02:56:22.014Z,4.14
2023-03-06T02:58:48.565Z,4.17
2023-03-06T03:01:15.265Z,4.19
2023-03-06T03:03:42.753Z,4.23
2023-03-06T03:06:10.332Z,4.25
2023-03-06T03:08:36.900Z,4.23
2023-03-06T03:11:04.546Z,4.21
2023-03-06T03:13:39.050Z,4.18
2023-03-06T03:16:10.649Z,4.18
2023-03-06T03:18:37.302Z,4.18
2023-03-06T03:21:07.950Z,4.18
2023-03-06T03:23:34.807Z,4.16
2023-03-06T03:26:19.315Z,4.14
2023-03-06T03:29:01.426Z,4.12
2023-03-06T03:31:28.189Z,4.08
2023-03-06T03:33:54.727Z,4.06
2023-03-06T03:36:22.410Z,4.02
2023-03-06T03:38:49.125Z,4.03
2023-03-06T03:41:15.583Z,4.06
2023-03-06T03:43:42.871Z,4.08
2023-03-06T03:46:09.648Z,4.10
2023-03-06T03:48:36.482Z,4.11
2023-03-06T03:51:11.427Z,4.12
2023-03-06T03:53:41.441Z,4.10
2023-03-06T03:56:10.726Z,4.10
2023-03-06T03:58:44.352Z,3.99
2023-03-06T04:01:11.860Z,3.95
2023-03-06T04:03:38.426Z,3.95
2023-03-06T04:06:07.140Z,4.00
2023-03-06T04:08:34.000Z,4.01
2023-03-06T04:11:00.587Z,4.07
2023-03-06T04:13:28.112Z,4.09
2023-03-06T04:15:56.069Z,4.06
2023-03-06T04:18:23.861Z,3.97
2023-03-06T04:20:52.894Z,4.01
2023-03-06T04:23:21.144Z,4.06
2023-03-06T04:25:47.934Z,4.09
2023-03-06T04:28:14.684Z,4.13
2023-03-06T04:30:41.791Z,4.16
2023-03-06T04:33:08.407Z,4.21
2023-03-06T04:35:35.297Z,4.21
2023-03-06T04:38:06.746Z,4.20
2023-03-06T04:40:35.791Z,4.18
2023-03-06T04:43:04.456Z,4.13
2023-03-06T04:45:32.400Z,4.09
2023-03-06T04:47:59.090Z,4.03
2023-03-06T04:50:27.951Z,3.92
2023-03-06T04:52:54.463Z,3.95
2023-03-06T04:55:21.053Z,3.99
2023-03-06T04:57:48.022Z,4.04
2023-03-06T05:00:19.209Z,4.02
2023-03-06T05:02:46.100Z,3.96
2023-03-06T05:05:13.601Z,3.95
2023-03-06T05:07:40.058Z,3.95
2023-03-06T05:10:08.190Z,3.95
2023-03-06T05:12:39.268Z,3.91
2023-03-06T05:15:06.892Z,3.86
2023-03-06T05:17:33.608Z,3.83
2023-03-06T05:20:00.016Z,3.83
2023-03-06T05:22:26.500Z,3.86
2023-03-06T05:24:52.996Z,3.83
2023-03-06T05:27:19.479Z,3.78
2023-03-06T05:29:45.961Z,3.76
2023-03-06T05:32:12.721Z,3.77
2023-03-06T05:34:40.026Z,3.83
2023-03-06T05:37:06.511Z,3.84
2023-03-06T05:39:32.950Z,3.79
2023-03-06T05:41:59.414Z,3.76
2023-03-06T05:44:31.240Z,3.80
2023-03-06T05:46:57.688Z,3.77
2023-03-06T05:49:24.095Z,3.75
2023-03-06T05:51:50.553Z,3.78
2023-03-06T05:54:17.372Z,3.76
2023-03-06T05:56:43.788Z,3.77
2023-03-06T05:59:10.278Z,3.80
2023-03-06T06:01:36.719Z,3.79
2023-03-06T06:04:03.198Z,3.77
2023-03-06T06:06:29.590Z,3.77
2023-03-06T06:08:55.968Z,3.75
2023-03-06T06:11:22.411Z,3.71
2023-03-06T06:13:49.393Z,3.73
2023-03-06T06:16:16.770Z,3.79
2023-03-06T06:18:43.609Z,3.75
2023-03-06T06:21:11.800Z,3.67
2023-03-06T06:23:38.225Z,3.64
2023-03-06T06:26:07.374Z,3.65
2023-03-06T06:28:34.215Z,3.67
2023-03-06T06:31:00.757Z,3.67
2023-03-06T06:33:27.351Z,3.63
2023-03-06T06:35:53.836Z,3.66
2023-03-06T06:38:20.318Z,3.72
2023-03-06T06:41:04.230Z,3.76
2023-03-06T06:43:33.150Z,3.79
2023-03-06T06:46:15.439Z,3.83
2023-03-06T06:48:49.194Z,3.83
2023-03-06T06:51:16.965Z,3.84
2023-03-06T06:53:44.462Z,3.87
2023-03-06T06:56:10.942Z,3.90
2023-03-06T06:58:37.377Z,3.92
2023-03-06T07:01:11.608Z,4.41
2023-03-06T07:03:38.724Z,5.11
2023-03-06T07:06:06.549Z,5.25
2023-03-06T07:08:33.669Z,5.07
2023-03-06T07:11:07.129Z,4.84
2023-03-06T07:13:34.385Z,4.70
2023-03-06T07:16:01.419Z,4.63
2023-03-06T07:18:28.084Z,4.59
2023-03-06T07:20:54.948Z,4.57
2023-03-06T07:23:21.335Z,4.72
2023-03-06T07:25:47.922Z,4.92
2023-03-06T07:28:14.376Z,5.05
2023-03-06T07:30:41.637Z,5.08
2023-03-06T07:33:08.356Z,5.04
2023-03-06T07:35:34.918Z,4.99
2023-03-06T07:38:01.323Z,4.94
2023-03-06T07:40:27.963Z,4.90
2023-03-06T07:43:06.019Z,4.84
2023-03-06T07:45:42.666Z,4.79
2023-03-06T07:48:09.957Z,4.75
2023-03-06T07:50:36.400Z,4.72
2023-03-06T07:53:02.822Z,4.77
2023-03-06T07:55:29.237Z,4.74
2023-03-06T07:57:55.764Z,4.79
2023-03-06T08:00:22.401Z,4.81
2023-03-06T08:02:49.562Z,4.87
2023-03-06T08:05:17.651Z,4.95
2023-03-06T08:07:45.410Z,5.00
2023-03-06T08:10:16.849Z,5.05
2023-03-06T08:12:43.401Z,5.13
2023-03-06T08:15:11.651Z,5.19
2023-03-06T08:17:38.241Z,5.20
2023-03-06T08:20:05.824Z,5.25
2023-03-06T08:22:33.876Z,5.37
2023-03-06T08:25:00.307Z,5.39
2023-03-06T08:27:26.710Z,5.39
2023-03-06T08:29:53.168Z,5.49
2023-03-06T08:32:19.663Z,5.62
2023-03-06T08:34:46.508Z,5.72
2023-03-06T08:37:12.884Z,5.78
2023-03-06T08:39:39.295Z,5.88
2023-03-06T08:42:05.753Z,5.84
2023-03-06T08:44:32.268Z,5.84
2023-03-06T08:46:58.765Z,5.85
2023-03-06T08:49:25.437Z,5.92
2023-03-06T08:51:51.888Z,5.99
2023-03-06T08:54:18.284Z,6.11
2023-03-06T08:56:44.803Z,6.20
2023-03-06T08:59:13.293Z,6.25
2023-03-06T09:01:40.293Z,6.29
2023-03-06T09:04:09.298Z,6.39
2023-03-06T09:06:39.655Z,6.42
2023-03-06T09:09:07.279Z,6.52
2023-03-06T09:11:33.940Z,6.58
2023-03-06T09:14:00.357Z,6.64
2023-03-06T09:16:26.978Z,6.68
2023-03-06T09:18:54.232Z,6.69
2023-03-06T09:21:22.003Z,6.64
2023-03-06T09:23:48.385Z,6.74
2023-03-06T09:26:14.924Z,6.86
2023-03-06T09:28:41.314Z,6.88
2023-03-06T09:31:12.964Z,6.80
2023-03-06T09:33:39.539Z,6.79
2023-03-06T09:36:07.778Z,6.80
2023-03-06T09:38:35.014Z,6.78
2023-03-06T09:43:44.591Z,6.61
2023-03-06T09:46:46.447Z,6.69
2023-03-06T09:49:12.834Z,6.80
2023-03-06T09:51:57.398Z,6.84
2023-03-06T09:54:46.335Z,6.91
2023-03-06T09:57:29.022Z,6.84
2023-03-06T09:59:59.963Z,6.82
2023-03-06T10:02:41.848Z,6.90
2023-03-06T10:05:25.891Z,6.94
2023-03-06T10:08:01.734Z,6.95
2023-03-06T10:10:41.974Z,6.93
2023-03-06T10:13:28.612Z,6.98
2023-03-06T10:16:09.972Z,7.01
2023-03-06T10:18:38.950Z,7.10
2023-03-06T10:21:19.707Z,7.18
2023-03-06T10:23:54.591Z,7.26
2023-03-06T10:26:27.800Z,7.36
2023-03-06T10:29:12.554Z,7.41
2023-03-06T10:31:44.571Z,7.37
2023-03-06T10:34:32.634Z,7.29
2023-03-06T10:37:09.735Z,7.24
2023-03-06T10:39:36.295Z,7.12
2023-03-06T10:42:03.149Z,7.09
2023-03-06T10:44:30.270Z,7.11
2023-03-06T10:46:56.677Z,7.16
2023-03-06T10:49:29.830Z,7.22
2023-03-06T10:52:00.759Z,7.22
2023-03-06T10:54:29.827Z,7.26
2023-03-06T10:56:56.319Z,7.29
2023-03-06T10:59:29.254Z,7.23
2023-03-06T11:01:58.658Z,7.19
2023-03-06T11:04:31.695Z,7.16
2023-03-06T11:07:15.325Z,7.13
2023-03-06T11:09:44.581Z,7.07
2023-03-06T11:12:19.780Z,7.03
2023-03-06T11:14:46.218Z,6.94
2023-03-06T11:17:30.852Z,6.93
2023-03-06T11:20:16.911Z,6.98
2023-03-06T11:22:49.275Z,6.93
2023-03-06T11:25:18.374Z,6.83
2023-03-06T11:27:46.864Z,6.91
2023-03-06T11:30:30.526Z,7.04
2023-03-06T11:33:02.577Z,7.04
2023-03-06T11:35:38.106Z,7.12
2023-03-06T11:38:34.037Z,7.17
2023-03-06T11:41:05.802Z,7.15
2023-03-06T11:43:53.148Z,7.15
2023-03-06T11:46:28.680Z,7.13
2023-03-06T11:49:17.196Z,7.07
2023-03-06T11:51:51.401Z,6.99
2023-03-06T11:54:17.917Z,6.90
2023-03-06T11:56:51.616Z,6.83
2023-03-06T11:59:54.747Z,6.83
2023-03-06T12:03:01.777Z,6.78
2023-03-06T12:05:36.337Z,6.71
2023-03-06T12:08:12.840Z,6.67
2023-03-06T12:10:51.739Z,6.62
2023-03-06T12:13:44.638Z,6.60
2023-03-06T12:16:39.194Z,6.59
2023-03-06T12:19:39.512Z,6.64
2023-03-06T12:22:35.826Z,6.80
2023-03-06T12:25:20.526Z,6.81
2023-03-06T12:28:19.330Z,6.85
2023-03-06T12:31:04.629Z,6.88
2023-03-06T12:33:49.507Z,6.93
2023-03-06T12:36:36.881Z,7.03
2023-03-06T12:39:09.659Z,7.15
2023-03-06T12:42:23.039Z,7.27
2023-03-06T12:45:14.577Z,7.31
2023-03-06T12:47:47.240Z,7.38
2023-03-06T12:50:21.777Z,7.43
2023-03-06T12:52:49.237Z,7.49
2023-03-06T12:55:23.181Z,7.57
2023-03-06T12:57:50.971Z,7.57
2023-03-06T13:01:03.605Z,7.49
2023-03-06T13:03:48.220Z,7.49
2023-03-06T13:06:50.724Z,7.41
2023-03-06T13:09:37.200Z,7.45
2023-03-06T13:12:42.148Z,7.49
2023-03-06T13:15:46.261Z,7.49
2023-03-06T13:18:21.695Z,7.52
2023-03-06T13:20:49.006Z,7.52
2023-03-06T13:23:58.373Z,7.57
2023-03-06T13:26:24.885Z,7.60
2023-03-06T13:28:53.997Z,7.62
2023-03-06T13:31:34.150Z,7.64
2023-03-06T13:34:05.460Z,7.63
2023-03-06T13:36:33.999Z,7.65
2023-03-06T13:39:13.904Z,7.64
2023-03-06T13:41:42.105Z,7.65
2023-03-06T13:44:23.715Z,7.60
2023-03-06T13:47:17.425Z,7.52
2023-03-06T13:49:47.503Z,7.53
2023-03-06T13:52:31.571Z,7.47
2023-03-06T13:55:08.343Z,7.47
2023-03-06T13:57:55.098Z,7.48
2023-03-06T14:00:30.451Z,7.46
2023-03-06T14:03:27.469Z,7.32
2023-03-06T14:05:54.117Z,7.23
2023-03-06T14:08:32.984Z,7.17
2023-03-06T14:11:05.596Z,7.12
2023-03-06T14:13:47.526Z,7.15
2023-03-06T14:16:27.840Z,7.03
2023-03-06T14:18:57.387Z,6.73
2023-03-06T14:21:30.631Z,6.74
2023-03-06T14:24:02.407Z,6.66
2023-03-06T14:26:32.762Z,6.63
2023-03-06T14:29:03.739Z,6.63
2023-03-06T14:31:41.182Z,6.52
2023-03-06T14:34:15.850Z,6.51
2023-03-06T14:36:46.884Z,6.61
2023-03-06T14:39:36.178Z,6.74
2023-03-06T14:42:26.280Z,6.82
2023-03-06T14:45:24.786Z,6.87
2023-03-06T14:47:52.760Z,6.91
2023-03-06T14:50:24.406Z,6.88
2023-03-06T14:52:55.741Z,6.79
2023-03-06T14:55:24.772Z,6.65
2023-03-06T14:58:01.224Z,6.66
2023-03-06T15:00:36.265Z,6.59
2023-03-06T15:03:07.526Z,6.52
2023-03-06T15:05:34.876Z,6.41
2023-03-06T15:08:06.570Z,6.29
2023-03-06T15:10:35.103Z,6.31
2023-03-06T15:13:31.648Z,6.26
2023-03-06T15:15:59.696Z,6.30
2023-03-06T15:18:55.468Z,6.36
2023-03-06T15:21:24.083Z,6.26
2023-03-06T15:23:52.506Z,6.28
2023-03-06T15:26:31.414Z,6.33
2023-03-06T15:29:25.858Z,6.27
2023-03-06T15:31:52.293Z,6.12
2023-03-06T15:34:23.458Z,6.19
2023-03-06T15:36:55.695Z,6.16
2023-03-06T15:39:30.915Z,6.09
2023-03-06T15:42:03.643Z,6.18
2023-03-06T15:44:32.550Z,6.18
2023-03-06T15:47:08.487Z,6.06
2023-03-06T15:49:37.775Z,6.03
2023-03-06T15:52:07.640Z,6.03
2023-03-06T15:54:34.552Z,6.15
2023-03-06T15:57:05.193Z,6.11
2023-03-06T15:59:37.447Z,6.09
2023-03-06T16:02:16.325Z,6.10
2023-03-06T16:04:43.158Z,5.94
2023-03-06T16:07:09.740Z,5.97
2023-03-06T16:09:36.649Z,5.92
2023-03-06T16:12:03.463Z,5.91
2023-03-06T16:14:30.031Z,5.89
2023-03-06T16:16:57.365Z,5.86
2023-03-06T16:19:27.329Z,5.81
2023-03-06T16:21:55.609Z,5.80
2023-03-06T16:24:22.482Z,5.78
2023-03-06T16:26:51.558Z,5.75
2023-03-06T16:29:23.495Z,5.77
2023-03-06T16:31:50.625Z,5.79
2023-03-06T16:34:19.526Z,5.85
2023-03-06T16:36:45.940Z,5.97
2023-03-06T16:39:17.162Z,5.94
2023-03-06T16:41:45.698Z,5.93
2023-03-06T16:44:12.918Z,5.95
2023-03-06T16:46:41.996Z,5.92
2023-03-06T16:49:15.726Z,5.97
2023-03-06T16:51:42.190Z,5.92
2023-03-06T16:54:08.923Z,5.82
2023-03-06T16:56:35.298Z,5.72
2023-03-06T16:59:01.672Z,5.65
2023-03-06T17:01:28.055Z,5.61
2023-03-06T17:03:54.806Z,5.56
2023-03-06T17:06:22.541Z,5.49
2023-03-06T17:08:49.902Z,5.51
2023-03-06T17:11:17.293Z,5.54
2023-03-06T17:13:43.685Z,5.55
2023-03-06T17:16:15.822Z,5.56
2023-03-06T17:18:44.314Z,5.59
2023-03-06T17:21:11.709Z,5.56
2023-03-06T17:23:38.237Z,5.52
2023-03-06T17:26:08.278Z,5.38
2023-03-06T17:28:36.192Z,5.37
2023-03-06T17:31:05.217Z,5.48
2023-03-06T17:33:31.838Z,5.41
2023-03-06T17:36:00.250Z,5.28
2023-03-06T17:38:27.647Z,5.23
2023-03-06T17:40:54.255Z,5.18
2023-03-06T17:43:21.975Z,5.17
2023-03-06T17:45:48.488Z,5.15
2023-03-06T17:48:15.017Z,5.11
2023-03-06T17:50:41.480Z,5.07
2023-03-06T17:53:07.916Z,5.05
2023-03-06T17:55:34.357Z,5.13
2023-03-06T17:58:00.787Z,5.18
2023-03-06T18:00:27.219Z,5.15
2023-03-06T18:02:53.634Z,5.20
2023-03-06T18:05:21.665Z,5.23
2023-03-06T18:07:48.102Z,5.23
2023-03-06T18:10:14.540Z,5.18
2023-03-06T18:12:40.951Z,5.16
2023-03-06T18:15:07.942Z,5.11
2023-03-06T18:17:34.418Z,5.05
2023-03-06T18:20:00.823Z,4.98
2023-03-06T18:22:27.245Z,4.96
2023-03-06T18:24:53.679Z,4.97
2023-03-06T18:27:21.087Z,5.06
2023-03-06T18:29:47.858Z,5.07
2023-03-06T18:32:14.648Z,5.06
2023-03-06T18:34:41.099Z,5.03
2023-03-06T18:37:07.506Z,5.08
2023-03-06T18:39:33.948Z,5.04
2023-03-06T18:42:00.490Z,4.98
2023-03-06T18:44:27.058Z,4.96
2023-03-06T18:46:53.539Z,4.95
2023-03-06T18:49:20.018Z,4.97
2023-03-06T18:51:48.104Z,4.94
2023-03-06T18:54:14.546Z,4.87
2023-03-06T18:56:43.996Z,4.84
2023-03-06T18:59:16.084Z,4.87
2023-03-06T19:01:45.028Z,4.86
2023-03-06T19:04:12.041Z,4.88
2023-03-06T19:06:39.854Z,4.91
2023-03-06T19:09:06.810Z,4.92
2023-03-06T19:11:33.974Z,4.87
2023-03-06T19:14:00.744Z,4.92
2023-03-06T19:16:29.602Z,4.93
2023-03-06T19:18:57.233Z,4.96
2023-03-06T19:21:26.546Z,4.95
2023-03-06T19:23:53.646Z,4.97
2023-03-06T19:26:20.617Z,5.02
2023-03-06T19:28:48.379Z,4.95
2023-03-06T19:31:27.119Z,4.86
2023-03-06T19:33:54.783Z,4.89
2023-03-06T19:36:27.381Z,4.88
2023-03-06T19:38:59.033Z,4.92
2023-03-06T19:41:26.282Z,4.92
2023-03-06T19:43:55.730Z,4.99
2023-03-06T19:46:23.294Z,5.00
2023-03-06T19:48:55.160Z,4.96
2023-03-06T19:51:21.563Z,4.96
2023-03-06T19:53:47.951Z,4.90
2023-03-06T19:56:18.518Z,4.88
2023-03-06T19:58:44.881Z,4.91
2023-03-06T20:01:13.965Z,4.94
2023-03-06T20:03:40.872Z,4.84
2023-03-06T20:06:11.791Z,4.83
2023-03-06T20:08:38.283Z,4.86
2023-03-06T20:11:04.955Z,4.87
2023-03-06T20:13:31.500Z,4.88
2023-03-06T20:16:02.568Z,4.93
2023-03-06T20:18:29.086Z,4.94
2023-03-06T20:21:00.061Z,4.97
2023-03-06T20:23:27.463Z,5.00
2023-03-06T20:25:53.960Z,5.07
2023-03-06T20:28:21.093Z,5.09
2023-03-06T20:30:47.585Z,5.17
2023-03-06T20:33:15.249Z,5.18
2023-03-06T20:35:42.613Z,5.20
2023-03-06T20:38:09.347Z,5.18
2023-03-06T20:40:42.882Z,5.18
2023-03-06T20:43:09.498Z,5.25
2023-03-06T20:45:36.083Z,5.25
2023-03-06T20:48:02.530Z,5.24
2023-03-06T20:50:29.009Z,5.25
2023-03-06T20:52:56.564Z,5.38
2023-03-06T20:55:23.152Z,5.37
2023-03-06T20:57:52.498Z,5.35
2023-03-06T21:00:20.780Z,5.37
2023-03-06T21:02:47.194Z,5.27
2023-03-06T21:05:13.754Z,5.21
2023-03-06T21:07:40.228Z,5.18
2023-03-06T21:10:07.515Z,5.14
2023-03-06T21:12:33.922Z,5.18
2023-03-06T21:15:00.366Z,5.19
2023-03-06T21:17:28.089Z,5.23
2023-03-06T21:19:54.571Z,5.24
2023-03-06T21:22:20.986Z,5.26
2023-03-06T21:24:47.341Z,5.25
2023-03-06T21:27:13.786Z,5.30
2023-03-06T21:29:40.190Z,5.30
2023-03-06T21:32:06.580Z,5.29
2023-03-06T21:34:33.260Z,5.31
2023-03-06T21:36:59.681Z,5.34
2023-03-06T21:39:26.082Z,5.34
2023-03-06T21:41:52.505Z,5.35
2023-03-06T21:44:19.561Z,5.28
2023-03-06T21:46:45.914Z,5.28
2023-03-06T21:49:12.385Z,5.24
2023-03-06T21:51:38.868Z,5.24
2023-03-06T21:54:06.161Z,5.26
2023-03-06T21:56:33.380Z,5.26
2023-03-06T21:58:59.966Z,5.29
2023-03-06T22:01:28.595Z,5.33
2023-03-06T22:03:55.550Z,5.36
2023-03-06T22:06:25.072Z,5.38
2023-03-06T22:08:51.564Z,5.39
2023-03-06T22:11:20.447Z,5.40
2023-03-06T22:13:50.591Z,5.37
2023-03-06T22:16:17.550Z,5.35
2023-03-06T22:18:45.989Z,5.36
2023-03-06T22:21:15.039Z,5.35
2023-03-06T22:23:41.729Z,5.36
2023-03-06T22:26:12.260Z,5.37
2023-03-06T22:28:40.913Z,5.35
2023-03-06T22:31:16.723Z,5.37
2023-03-06T22:33:43.695Z,5.35
2023-03-06T22:36:15.413Z,5.31
2023-03-06T22:38:44.292Z,5.30
2023-03-06T22:41:12.344Z,5.33
2023-03-06T22:43:38.797Z,5.35
2023-03-06T22:46:09.061Z,5.35
2023-03-06T22:48:35.657Z,5.33
2023-03-06T22:51:10.308Z,5.37
2023-03-06T22:53:37.652Z,5.38
2023-03-06T22:56:07.873Z,5.29
2023-03-06T22:58:37.153Z,5.30
2023-03-06T23:01:08.932Z,5.34
2023-03-06T23:03:37.289Z,5.31
2023-03-06T23:06:16.834Z,5.28
2023-03-06T23:08:45.110Z,5.27
2023-03-06T23:11:14.268Z,5.28
2023-03-06T23:13:59.452Z,5.31
2023-03-06T23:16:45.051Z,5.31
2023-03-06T23:19:30.249Z,5.34
2023-03-06T23:22:15.371Z,5.37
2023-03-06T23:25:00.414Z,5.38
2023-03-06T23:27:27.164Z,5.40
2023-03-06T23:29:58.755Z,5.44
2023-03-06T23:32:25.292Z,5.37
2023-03-06T23:34:55.175Z,5.40
2023-03-06T23:37:21.595Z,5.41
2023-03-06T23:39:48.054Z,5.43
2023-03-06T23:42:14.746Z,5.45
2023-03-06T23:44:41.183Z,5.49
2023-03-06T23:47:07.697Z,5.51
2023-03-06T23:49:34.340Z,5.51
2023-03-06T23:52:00.770Z,5.48
2023-03-06T23:54:27.207Z,5.44
2023-03-06T23:56:53.656Z,5.36
2023-03-06T23:59:20.060Z,5.37
